Colebrook, New Hampshire
Current Conditions -  °F | °C
As of 1:52 PM on Sunday 23 Nov 2014 (Local Time) from KBML Reporting Station
Haze Haze  
Wind Chill: 40°   Ceiling: 2400
Heat Index: 40°   Visibility: 6mi
Dew Point: 37°   Wind: 0mph
Humidity: 89%   Direction: NA
Pressure: 30.05"   Gusts: NA
Location:  44.89°N, 71.48°W
Report Text: KBML 231852Z AUTO 00000KT 6SM BR OVC024 04/03 A3005 RMK AO2 SLP189 T00440028
Loading
Personal Weather Stations






























Interactive Weather Map New forecast layout! Learn more

10-Day Weather Forecast

Advertisements
Track Severe Weather on mobile